Time;durP1;ratioP1;P1;durP2;ratioP2;P2;SDS_P1;SDS_P2;PMS_P1;PMS_P2;Temp;Humidity;BMP_temperature;BMP_pressure;BME280_temperature;BME280_humidity;BME280_pressure;Samples;Min_cycle;Max_cycle;Signal;HPM_P1;HPM_P2
2022/06/09 00:00:34;;;;;;;34.43;30.50;;;;;;;17.87;100.00;98367.47;2075128;28;20788;-71
2022/06/09 00:01:39;;;;;;;39.43;30.23;;;;;;;17.85;100.00;98358.97;2075165;28;20840;-71
2022/06/09 00:02:45;;;;;;;35.60;30.23;;;;;;;17.86;100.00;98374.03;2074524;28;20450;-71
2022/06/09 00:03:51;;;;;;;35.97;30.63;;;;;;;17.91;100.00;98365.63;2067129;28;20549;-71
2022/06/09 00:04:51;;;;;;;37.60;30.90;;;;;;;17.93;100.00;98366.03;2074608;28;20469;-71
2022/06/09 00:05:53;;;;;;;37.33;30.10;;;;;;;17.95;100.00;98362.97;2074670;28;20481;-71
2022/06/09 00:06:57;;;;;;;38.97;30.40;;;;;;;17.94;100.00;98362.19;2075142;28;20196;-71
2022/06/09 00:08:00;;;;;;;33.03;29.43;;;;;;;17.99;100.00;98367.31;2075162;28;20515;-71
2022/06/09 00:09:03;;;;;;;35.73;30.13;;;;;;;17.98;100.00;98367.66;2075116;28;20933;-71
2022/06/09 00:10:07;;;;;;;33.73;29.93;;;;;;;17.97;100.00;98361.47;2075103;28;20821;-71
2022/06/09 00:11:12;;;;;;;34.93;29.37;;;;;;;18.05;100.00;98362.38;2075113;28;20441;-71
2022/06/09 00:12:13;;;;;;;32.60;29.20;;;;;;;18.07;100.00;98360.88;2075249;28;20470;-71
2022/06/09 00:13:17;;;;;;;34.63;29.77;;;;;;;18.11;100.00;98369.03;2074338;28;20444;-71
2022/06/09 00:14:20;;;;;;;36.73;30.53;;;;;;;18.10;100.00;98364.00;2066639;28;20212;-71
2022/06/09 00:15:21;;;;;;;36.97;29.10;;;;;;;18.13;100.00;98368.66;2074574;28;20427;-71
2022/06/09 00:16:24;;;;;;;34.03;29.07;;;;;;;18.08;100.00;98365.13;2075299;28;20463;-71
2022/06/09 00:17:26;;;;;;;34.47;30.33;;;;;;;18.08;100.00;98365.13;2075181;28;20188;-71
2022/06/09 00:18:29;;;;;;;35.43;30.57;;;;;;;18.05;100.00;98367.75;2074986;28;20455;-71
2022/06/09 00:19:29;;;;;;;37.70;30.67;;;;;;;18.08;100.00;98365.13;2090727;28;20545;-71
2022/06/09 00:20:31;;;;;;;37.70;30.40;;;;;;;18.10;100.00;98372.88;2090878;28;20444;-71
2022/06/09 00:21:33;;;;;;;36.17;30.87;;;;;;;18.12;100.00;98367.09;2074720;28;20254;-71
2022/06/09 00:22:34;;;;;;;35.57;31.20;;;;;;;18.16;100.00;98370.66;2075045;28;20435;-71
2022/06/09 00:23:35;;;;;;;39.23;32.77;;;;;;;18.13;100.00;98371.34;2075015;28;20450;-71
2022/06/09 00:24:37;;;;;;;34.63;30.93;;;;;;;18.18;100.00;98362.97;2074300;28;20980;-71
2022/06/09 00:25:38;;;;;;;45.93;33.07;;;;;;;18.11;100.00;98362.84;2074395;28;20427;-71
2022/06/09 00:26:39;;;;;;;38.47;30.93;;;;;;;18.07;100.00;98362.81;2074268;28;20458;-71
2022/06/09 00:27:41;;;;;;;36.87;31.43;;;;;;;18.08;100.00;98356.25;2074443;28;20574;-71
2022/06/09 00:28:43;;;;;;;38.30;31.80;;;;;;;18.11;100.00;98366.31;2074987;28;20941;-71
2022/06/09 00:29:44;;;;;;;40.90;33.63;;;;;;;18.14;100.00;98365.59;2074722;28;20463;-71
2022/06/09 00:30:46;;;;;;;42.53;33.17;;;;;;;18.12;100.00;98372.50;2074952;28;20937;-71
2022/06/09 00:31:47;;;;;;;40.03;32.37;;;;;;;18.14;100.00;98376.38;2074269;28;20266;-71
2022/06/09 00:32:48;;;;;;;41.77;32.53;;;;;;;18.16;100.00;98376.06;2074290;28;20466;-71
2022/06/09 00:33:50;;;;;;;39.20;32.30;;;;;;;18.13;100.00;98379.44;2074921;28;20188;-71
2022/06/09 00:34:52;;;;;;;38.60;33.27;;;;;;;18.10;100.00;98382.88;2074242;28;20950;-71
2022/06/09 00:35:53;;;;;;;40.83;33.80;;;;;;;18.14;100.00;98381.00;2073826;28;20435;-71
2022/06/09 00:36:57;;;;;;;43.40;32.50;;;;;;;18.15;100.00;98385.25;2082513;28;20963;-71
2022/06/09 00:37:58;;;;;;;41.47;31.93;;;;;;;18.13;100.00;98376.75;2082083;28;20473;-71
2022/06/09 00:39:00;;;;;;;40.23;33.27;;;;;;;18.17;100.00;98386.47;2074912;28;20435;-71
2022/06/09 00:40:01;;;;;;;46.70;34.63;;;;;;;18.16;100.00;98392.25;2074262;28;20243;-71
2022/06/09 00:41:03;;;;;;;45.23;36.10;;;;;;;18.13;100.00;98401.06;2074842;28;20937;-71
2022/06/09 00:42:05;;;;;;;45.80;37.00;;;;;;;18.27;100.00;98406.69;2074878;28;20326;-71
2022/06/09 00:43:09;;;;;;;44.43;38.83;;;;;;;18.25;100.00;98408.97;2074829;28;20423;-71
2022/06/09 00:44:14;;;;;;;41.40;36.03;;;;;;;18.25;100.00;98406.28;2074968;28;20424;-71
2022/06/09 00:45:26;;;;;;;33.57;30.13;;;;;;;18.16;100.00;98397.66;2074747;28;20481;-71
2022/06/09 00:46:30;;;;;;;28.40;25.90;;;;;;;17.99;100.00;98402.41;2074225;28;20488;-71
2022/06/09 00:47:32;;;;;;;29.97;27.10;;;;;;;17.92;100.00;98402.28;2074441;28;20834;-71
2022/06/09 00:48:40;;;;;;;31.47;28.23;;;;;;;17.82;100.00;98397.50;2074782;28;20431;-71
2022/06/09 00:49:47;;;;;;;34.47;31.27;;;;;;;17.77;100.00;98398.56;2074105;28;20823;-71
2022/06/09 00:50:53;;;;;;;30.90;28.27;;;;;;;17.73;100.00;98394.25;2074494;28;20455;-70
2022/06/09 00:51:56;;;;;;;32.37;29.37;;;;;;;17.67;100.00;98401.03;2074641;28;20423;-71
2022/06/09 00:53:01;;;;;;;30.87;28.17;;;;;;;17.67;100.00;98406.44;2074856;28;20462;-71
2022/06/09 00:54:06;;;;;;;26.13;23.60;;;;;;;17.55;100.00;98387.69;2074833;28;20418;-71
2022/06/09 00:55:14;;;;;;;25.73;23.67;;;;;;;17.42;100.00;98384.41;2074747;28;20944;-71
2022/06/09 00:56:17;;;;;;;25.63;23.63;;;;;;;17.20;100.00;98372.44;2073621;28;20451;-71
2022/06/09 00:57:24;;;;;;;27.20;24.90;;;;;;;17.13;100.00;98364.22;2074208;28;20420;-71
2022/06/09 00:58:27;;;;;;;27.23;24.60;;;;;;;17.05;100.00;98349.06;2074897;28;20397;-71
2022/06/09 00:59:29;;;;;;;31.50;26.83;;;;;;;16.93;100.00;98341.88;2074020;28;20961;-71
2022/06/09 01:00:35;;;;;;;28.43;25.93;;;;;;;16.86;100.00;98337.16;2066415;28;20451;-71
2022/06/09 01:01:37;;;;;;;28.20;25.70;;;;;;;16.87;100.00;98340.63;2074430;28;20415;-71
2022/06/09 01:02:41;;;;;;;29.13;26.43;;;;;;;16.78;100.00;98351.63;2074045;28;20451;-71
2022/06/09 01:03:45;;;;;;;27.97;25.80;;;;;;;16.75;100.00;98338.06;2066421;28;20452;-71
2022/06/09 01:04:52;;;;;;;28.40;25.83;;;;;;;16.77;100.00;98335.81;2066346;28;20459;-71
2022/06/09 01:05:56;;;;;;;29.02;26.30;;;;;;;16.75;100.00;98316.50;2073720;28;20404;-71
2022/06/09 01:06:59;;;;;;;27.85;25.48;;;;;;;16.75;100.00;98316.50;2074745;28;20540;-71
2022/06/09 01:08:02;;;;;;;26.97;24.87;;;;;;;16.70;100.00;98312.19;2074884;28;20199;-71
2022/06/09 01:09:10;;;;;;;27.40;24.83;;;;;;;16.72;100.00;98311.84;2074722;28;20888;-71
2022/06/09 01:10:13;;;;;;;26.07;23.87;;;;;;;16.58;100.00;98294.22;2075059;28;20415;-71
2022/06/09 01:11:16;;;;;;;26.27;23.83;;;;;;;16.51;100.00;98288.69;2073941;28;20428;-71
2022/06/09 01:12:24;;;;;;;25.38;23.55;;;;;;;16.46;100.00;98288.19;2073977;28;20814;-71
2022/06/09 01:13:26;;;;;;;26.15;24.00;;;;;;;16.49;100.00;98290.94;2074653;28;20188;-71
2022/06/09 01:14:28;;;;;;;27.07;24.50;;;;;;;16.47;100.00;98287.84;2074732;28;20203;-71
2022/06/09 01:15:39;;;;;;;26.87;24.50;;;;;;;16.45;100.00;98273.16;2073961;28;20448;-71
2022/06/09 01:16:48;;;;;;;27.13;24.95;;;;;;;16.44;100.00;98277.00;2074156;28;20829;-71
2022/06/09 01:17:59;;;;;;;26.70;24.55;;;;;;;16.37;100.00;98273.03;2074750;28;20267;-70
2022/06/09 01:19:14;;;;;;;25.77;23.80;;;;;;;16.36;100.00;98268.78;2074840;28;20188;-71
2022/06/09 01:20:25;;;;;;;26.73;24.80;;;;;;;16.40;100.00;98277.69;2074727;28;20175;-71
2022/06/09 01:21:51;;;;;;;27.33;25.13;;;;;;;16.34;100.00;98276.44;2073427;28;20307;-71
2022/06/09 01:23:10;;;;;;;26.65;24.55;;;;;;;16.28;100.00;98280.53;2074593;28;20246;-71
2022/06/09 01:24:45;;;;;;;26.50;24.10;;;;;;;16.27;100.00;98281.66;2074589;28;20267;-71
2022/06/09 01:26:08;;;;;;;26.90;24.80;;;;;;;16.27;100.00;98278.97;2067275;28;20810;-71
2022/06/09 01:27:18;;;;;;;25.40;23.60;;;;;;;16.26;100.00;98287.41;2074803;28;20620;-71
2022/06/09 01:28:57;;;;;;;28.27;25.70;;;;;;;16.21;100.00;98291.13;2074765;28;20176;-71
2022/06/09 01:30:07;;;;;;;24.10;22.50;;;;;;;16.24;100.00;98293.09;2046768;28;20232;-71
2022/06/09 01:31:12;;;;;;;24.92;23.23;;;;;;;16.17;100.00;98300.28;2066805;28;20323;-71
2022/06/09 01:32:20;;;;;;;25.00;22.85;;;;;;;16.13;100.00;98294.78;2066443;28;20201;-71
2022/06/09 01:33:28;;;;;;;28.15;26.05;;;;;;;16.09;100.00;98294.72;2082975;28;20227;-70
2022/06/09 01:34:37;;;;;;;25.58;23.42;;;;;;;16.09;100.00;98293.94;2088364;28;20618;-71
2022/06/09 01:35:44;;;;;;;25.60;23.80;;;;;;;16.11;100.00;98297.06;2074597;28;20275;-70
2022/06/09 01:36:52;;;;;;;26.35;24.35;;;;;;;16.05;100.00;98296.53;2074221;28;20271;-71
2022/06/09 01:37:55;;;;;;;27.30;25.20;;;;;;;16.04;100.00;98296.91;2074412;28;20193;-70
2022/06/09 01:39:03;;;;;;;25.70;23.95;;;;;;;16.01;100.00;98293.00;2073756;28;20717;-71
2022/06/09 01:40:07;;;;;;;26.65;24.25;;;;;;;16.00;100.00;98296.06;2074166;28;20176;-71
2022/06/09 01:41:08;;;;;;;25.92;23.83;;;;;;;16.04;100.00;98305.75;2074407;28;20200;-71
2022/06/09 01:42:20;;;;;;;28.03;25.50;;;;;;;15.98;100.00;98311.75;2073572;28;20197;-70
2022/06/09 01:43:22;;;;;;;25.02;23.00;;;;;;;16.03;100.00;98316.88;2074193;28;20165;-70
2022/06/09 01:44:25;;;;;;;26.65;24.55;;;;;;;16.03;100.00;98319.56;2073726;28;20184;-71
2022/06/09 01:45:29;;;;;;;26.73;24.40;;;;;;;16.04;100.00;98321.91;2073762;28;20556;-71
2022/06/09 01:46:33;;;;;;;28.00;26.00;;;;;;;15.97;100.00;98321.72;2074362;28;20428;-71
2022/06/09 01:47:40;;;;;;;25.00;23.23;;;;;;;15.99;100.00;98322.19;2073700;28;20189;-71
2022/06/09 01:48:41;;;;;;;24.70;22.80;;;;;;;16.01;100.00;98311.84;2073889;28;20169;-72
2022/06/09 01:49:43;;;;;;;26.47;24.07;;;;;;;15.99;100.00;98307.94;2074394;28;20185;-71
2022/06/09 01:50:48;;;;;;;25.95;23.90;;;;;;;16.00;100.00;98304.91;2074397;28;20195;-71
2022/06/09 01:51:51;;;;;;;23.50;21.77;;;;;;;16.02;100.00;98296.47;2074219;28;20682;-71
2022/06/09 01:52:53;;;;;;;24.67;22.98;;;;;;;16.06;100.00;98297.31;2074356;28;20208;-70
2022/06/09 01:53:59;;;;;;;25.00;23.23;;;;;;;16.08;100.00;98295.88;2074352;28;20600;-70
2022/06/09 01:55:02;;;;;;;24.10;22.20;;;;;;;16.08;100.00;98297.78;2074433;28;20243;-70
2022/06/09 01:56:08;;;;;;;25.70;23.70;;;;;;;16.07;100.00;98288.94;2074479;28;20192;-70
2022/06/09 01:57:10;;;;;;;24.77;22.88;;;;;;;16.06;100.00;98281.97;2074369;28;20208;-70
2022/06/09 01:58:15;;;;;;;25.85;23.25;;;;;;;16.09;100.00;98293.94;2074298;28;20670;-71
2022/06/09 01:59:20;;;;;;;28.10;25.67;;;;;;;16.08;100.00;98287.00;2074301;28;20192;-71
2022/06/09 02:00:24;;;;;;;27.38;25.25;;;;;;;16.08;100.00;98297.78;2073700;28;20192;-71
2022/06/09 02:01:30;;;;;;;25.92;23.90;;;;;;;16.04;100.00;98292.28;2074067;28;20188;-71
2022/06/09 02:02:36;;;;;;;24.58;22.25;;;;;;;16.03;100.00;98289.97;2074470;28;20185;-71
2022/06/09 02:03:40;;;;;;;24.73;22.75;;;;;;;16.14;100.00;98290.19;2074288;28;20591;-70
2022/06/09 02:04:46;;;;;;;25.88;23.75;;;;;;;16.15;100.00;98287.13;2074489;28;20686;-71
2022/06/09 02:05:49;;;;;;;25.55;23.30;;;;;;;16.16;100.00;98277.16;2074382;28;20188;-71
2022/06/09 02:06:51;;;;;;;23.52;21.67;;;;;;;16.16;100.00;98277.16;2073111;28;20220;-71
2022/06/09 02:07:55;;;;;;;24.25;22.45;;;;;;;16.14;100.00;98271.34;2073268;28;20280;-71
2022/06/09 02:08:57;;;;;;;23.95;21.95;;;;;;;16.15;100.00;98272.91;2074125;28;20551;-71
2022/06/09 02:10:17;;;;;;;25.80;23.63;;;;;;;16.08;100.00;98271.66;2074199;28;20554;-71
2022/06/09 02:11:18;;;;;;;24.23;22.17;;;;;;;16.02;100.00;98267.66;2074232;28;20204;-70
2022/06/09 02:12:25;;;;;;;25.20;23.00;;;;;;;15.95;100.00;98267.50;2081705;28;20188;-71
2022/06/09 02:13:29;;;;;;;24.40;22.40;;;;;;;16.05;100.00;98260.78;2073470;28;20239;-70
2022/06/09 02:14:30;;;;;;;25.00;23.00;;;;;;;16.06;100.00;98257.75;2073848;28;20242;-71
2022/06/09 02:15:36;;;;;;;23.02;21.00;;;;;;;16.02;100.00;98256.13;2074388;28;20181;-71
2022/06/09 02:16:38;;;;;;;24.80;22.58;;;;;;;16.05;100.00;98261.56;2073543;28;20203;-71
2022/06/09 02:17:48;;;;;;;24.47;22.50;;;;;;;16.01;100.00;98268.00;2065580;28;20312;-71
2022/06/09 02:18:51;;;;;;;25.52;23.25;;;;;;;15.97;100.00;98259.84;2074881;28;20204;-71
2022/06/09 02:19:53;;;;;;;25.63;23.13;;;;;;;16.00;100.00;98261.06;2081487;28;20196;-70
2022/06/09 02:20:56;;;;;;;24.00;22.15;;;;;;;16.00;100.00;98263.75;2073755;28;20868;-70
2022/06/09 02:21:58;;;;;;;22.90;21.08;;;;;;;16.01;100.00;98260.72;2081792;28;20635;-71
2022/06/09 02:22:59;;;;;;;23.10;21.10;;;;;;;16.01;100.00;98268.00;2081731;28;20199;-70
2022/06/09 02:24:01;;;;;;;22.80;20.97;;;;;;;15.98;100.00;98263.31;2074367;28;20283;-70
2022/06/09 02:25:02;;;;;;;23.33;21.08;;;;;;;15.96;100.00;98273.66;2074197;28;20233;-71
2022/06/09 02:26:10;;;;;;;22.67;20.88;;;;;;;15.91;100.00;98276.63;2074131;28;20242;-71
2022/06/09 02:27:10;;;;;;;21.45;19.65;;;;;;;15.94;100.00;98273.22;2074270;28;20255;-71
2022/06/09 02:28:12;;;;;;;22.47;20.47;;;;;;;15.98;100.00;98266.00;2073428;28;20203;-71
2022/06/09 02:29:14;;;;;;;20.52;19.02;;;;;;;16.07;100.00;98282.72;2073416;28;20239;-70
2022/06/09 02:30:16;;;;;;;20.63;18.90;;;;;;;16.08;100.00;98274.34;2081556;28;20290;-70
2022/06/09 02:31:18;;;;;;;23.77;21.47;;;;;;;16.06;100.00;98289.25;2081745;28;20430;-71
2022/06/09 02:32:20;;;;;;;23.25;21.45;;;;;;;16.07;100.00;98283.53;2074103;28;20434;-70
2022/06/09 02:33:23;;;;;;;23.52;21.55;;;;;;;16.06;100.00;98289.25;2074222;28;20216;-71
2022/06/09 02:34:25;;;;;;;22.52;20.38;;;;;;;16.03;100.00;98292.66;2074176;28;20651;-70
2022/06/09 02:35:26;;;;;;;23.73;21.63;;;;;;;16.03;100.00;98284.56;2073424;28;20207;-71
2022/06/09 02:36:28;;;;;;;23.53;21.60;;;;;;;16.06;100.00;98276.56;2073137;28;20624;-70
2022/06/09 02:37:29;;;;;;;31.23;21.58;;;;;;;16.08;100.00;98281.63;2073290;28;20274;-71
2022/06/09 02:38:30;;;;;;;23.43;21.73;;;;;;;16.05;100.00;98277.72;2073458;28;20188;-71
2022/06/09 02:39:32;;;;;;;23.17;21.23;;;;;;;16.04;100.00;98280.75;2073999;28;20192;-70
2022/06/09 02:40:35;;;;;;;23.58;21.38;;;;;;;16.07;100.00;98275.47;2073419;28;20209;-71
2022/06/09 02:41:35;;;;;;;24.27;21.85;;;;;;;16.09;100.00;98270.50;2073495;28;20188;-70
2022/06/09 02:42:37;;;;;;;22.63;20.83;;;;;;;16.07;100.00;98274.66;2074274;28;20223;-71
2022/06/09 02:43:40;;;;;;;21.87;20.17;;;;;;;16.12;100.00;98277.09;2089733;28;20183;-70
2022/06/09 02:44:41;;;;;;;23.33;21.38;;;;;;;16.07;100.00;98267.41;2081344;28;20442;-70
2022/06/09 02:45:43;;;;;;;22.33;20.42;;;;;;;16.13;100.00;98272.50;2073430;28;20276;-71
2022/06/09 02:46:44;;;;;;;21.10;19.20;;;;;;;16.12;100.00;98277.09;2074028;28;20219;-71
2022/06/09 02:47:46;;;;;;;22.10;20.20;;;;;;;16.13;100.00;98278.66;2074011;28;20447;-71
2022/06/09 02:48:48;;;;;;;21.13;19.47;;;;;;;16.12;100.00;98266.31;2074242;28;20283;-71
2022/06/09 02:49:52;;;;;;;21.10;19.20;;;;;;;16.08;100.00;98279.72;2073982;28;20865;-70
2022/06/09 02:50:53;;;;;;;21.75;19.85;;;;;;;16.02;100.00;98283.03;2073470;28;20436;-70
2022/06/09 02:51:55;;;;;;;21.67;19.77;;;;;;;16.08;100.00;98292.41;2073328;28;20215;-70
2022/06/09 02:52:55;;;;;;;21.77;20.02;;;;;;;16.06;100.00;98284.66;2081432;28;20256;-70
2022/06/09 02:54:03;;;;;;;20.93;19.03;;;;;;;16.04;100.00;98296.91;2090065;28;20241;-71
2022/06/09 02:55:04;;;;;;;20.92;19.23;;;;;;;16.06;100.00;98291.94;2081531;28;20194;-70
2022/06/09 02:56:06;;;;;;;21.73;19.63;;;;;;;16.06;100.00;98295.41;2073380;28;20242;-71
2022/06/09 02:57:07;;;;;;;20.98;19.25;;;;;;;16.05;100.00;98298.47;2073502;28;20462;-71
2022/06/09 02:58:09;;;;;;;20.42;18.80;;;;;;;16.03;100.00;98300.72;2073310;28;20188;-70
2022/06/09 02:59:10;;;;;;;21.60;19.80;;;;;;;16.00;100.00;98290.69;2065186;28;20196;-70
2022/06/09 03:00:15;;;;;;;20.73;19.08;;;;;;;16.06;100.00;98294.63;2073406;28;20195;-71
2022/06/09 03:01:16;;;;;;;20.08;18.58;;;;;;;16.11;100.00;98297.06;2074094;28;20216;-71
2022/06/09 03:02:18;;;;;;;21.40;19.50;;;;;;;16.11;100.00;98291.69;2074005;28;20658;-71
2022/06/09 03:03:20;;;;;;;20.33;18.53;;;;;;;16.11;100.00;98294.38;2073912;28;20280;-70
2022/06/09 03:04:23;;;;;;;20.67;19.05;;;;;;;16.08;100.00;98295.09;2073912;28;20922;-71
2022/06/09 03:05:26;;;;;;;20.77;19.13;;;;;;;16.08;100.00;98293.16;2073927;28;20219;-70
2022/06/09 03:06:28;;;;;;;20.63;18.90;;;;;;;16.08;100.00;98292.41;2073442;28;20497;-71
2022/06/09 03:07:29;;;;;;;20.20;18.57;;;;;;;16.05;100.00;98293.06;2081415;28;20698;-71
2022/06/09 03:08:30;;;;;;;20.37;18.83;;;;;;;16.06;100.00;98283.88;2073247;28;20878;-70
2022/06/09 03:09:31;;;;;;;20.37;18.47;;;;;;;16.09;100.00;98291.25;2065119;28;20262;-71
2022/06/09 03:10:33;;;;;;;21.77;19.60;;;;;;;16.16;100.00;98287.91;2065261;28;20448;-70
2022/06/09 03:11:35;;;;;;;20.93;18.83;;;;;;;16.12;100.00;98287.84;2073365;28;20196;-71
2022/06/09 03:12:37;;;;;;;20.33;18.73;;;;;;;16.14;100.00;98292.88;2074041;28;20420;-70
2022/06/09 03:13:39;;;;;;;23.05;19.55;;;;;;;16.13;100.00;98297.50;2073221;28;20473;-70
2022/06/09 03:14:40;;;;;;;20.42;18.35;;;;;;;16.05;100.00;98293.06;2073293;28;20678;-70
2022/06/09 03:15:41;;;;;;;21.00;19.17;;;;;;;16.03;100.00;98296.13;2073344;28;20196;-70
2022/06/09 03:16:42;;;;;;;20.60;18.80;;;;;;;16.16;100.00;98288.72;2073648;28;20191;-70
2022/06/09 03:17:44;;;;;;;20.92;19.08;;;;;;;16.15;100.00;98292.53;2073947;28;20216;-71
2022/06/09 03:18:47;;;;;;;22.37;19.57;;;;;;;16.06;100.00;98294.63;2073877;28;20184;-71
2022/06/09 03:19:52;;;;;;;21.30;19.30;;;;;;;16.04;100.00;98296.91;2074778;28;20431;-71
2022/06/09 03:20:58;;;;;;;21.55;18.65;;;;;;;16.10;100.00;98292.81;2075107;28;20399;-70
2022/06/09 03:21:59;;;;;;;21.35;19.48;;;;;;;16.03;100.00;98290.75;2075692;28;20635;-70
2022/06/09 03:23:01;;;;;;;20.23;18.63;;;;;;;16.09;100.00;98293.94;2075522;28;20608;-70
2022/06/09 03:24:01;;;;;;;21.23;19.43;;;;;;;16.02;100.00;98291.88;2074772;28;20250;-70
2022/06/09 03:25:04;;;;;;;20.83;19.13;;;;;;;15.96;100.00;98287.09;2066963;28;20440;-71
2022/06/09 03:26:07;;;;;;;20.13;18.53;;;;;;;15.92;100.00;98297.03;2066453;28;20208;-70
2022/06/09 03:27:10;;;;;;;21.55;19.35;;;;;;;15.95;100.00;98288.25;2074894;28;20933;-70
2022/06/09 03:28:11;;;;;;;21.10;19.40;;;;;;;15.95;100.00;98296.31;2075441;28;20216;-70
2022/06/09 03:29:13;;;;;;;21.10;19.17;;;;;;;15.93;100.00;98287.81;2075603;28;20234;-70
2022/06/09 03:30:14;;;;;;;21.50;19.60;;;;;;;16.01;100.00;98293.00;2075418;28;20482;-71
2022/06/09 03:31:18;;;;;;;20.45;18.75;;;;;;;16.04;100.00;98280.75;2075441;28;20639;-71
2022/06/09 03:32:19;;;;;;;22.40;20.47;;;;;;;16.02;100.00;98283.03;2075436;28;20196;-70
2022/06/09 03:33:21;;;;;;;21.73;19.73;;;;;;;16.04;100.00;98276.16;2075631;28;20415;-71
2022/06/09 03:34:24;;;;;;;21.65;19.73;;;;;;;16.01;100.00;98287.63;2075406;28;20216;-70
2022/06/09 03:35:27;;;;;;;22.67;20.57;;;;;;;16.02;100.00;98283.03;2074725;28;20199;-71
2022/06/09 03:36:29;;;;;;;21.27;19.20;;;;;;;16.06;100.00;98286.56;2074463;28;20439;-70
2022/06/09 03:37:29;;;;;;;21.02;19.02;;;;;;;16.09;100.00;98283.19;2075667;28;20926;-70
2022/06/09 03:38:31;;;;;;;21.73;19.83;;;;;;;16.11;100.00;98280.91;2075462;28;20541;-70
2022/06/09 03:39:32;;;;;;;23.10;21.00;;;;;;;16.17;100.00;98287.59;2075363;28;20271;-70
2022/06/09 03:40:35;;;;;;;21.87;19.73;;;;;;;16.16;100.00;98291.41;2074619;28;20957;-71
2022/06/09 03:41:36;;;;;;;23.37;20.63;;;;;;;16.17;100.00;98278.75;2074814;28;20193;-71
2022/06/09 03:42:38;;;;;;;22.13;19.97;;;;;;;16.16;100.00;98277.97;2075456;28;20431;-71
2022/06/09 03:43:39;;;;;;;21.20;19.17;;;;;;;16.18;100.00;98283.78;2074665;28;20188;-71
2022/06/09 03:44:40;;;;;;;22.07;20.00;;;;;;;16.22;100.00;98283.84;2074761;28;20439;-70
2022/06/09 03:45:41;;;;;;;21.98;20.00;;;;;;;16.24;100.00;98278.88;2075307;28;20603;-71
2022/06/09 03:46:43;;;;;;;21.50;19.60;;;;;;;16.31;100.00;98284.41;2075359;28;20189;-71
2022/06/09 03:47:44;;;;;;;22.97;20.83;;;;;;;16.36;100.00;98278.75;2075326;28;20223;-71
2022/06/09 03:48:47;;;;;;;23.53;21.37;;;;;;;16.36;100.00;98276.06;2074566;28;20478;-70
2022/06/09 03:49:47;;;;;;;22.33;20.13;;;;;;;16.37;100.00;98275.72;2074715;28;20981;-70
2022/06/09 03:50:50;;;;;;;23.60;21.27;;;;;;;16.35;100.00;98279.91;2074548;28;20831;-70
2022/06/09 03:51:51;;;;;;;23.27;21.03;;;;;;;16.39;100.00;98276.13;2074313;28;20224;-70
2022/06/09 03:52:52;;;;;;;23.57;21.27;;;;;;;16.33;100.00;98274.88;2075293;28;20525;-71
2022/06/09 03:53:53;;;;;;;21.90;20.10;;;;;;;16.36;100.00;98274.16;2075439;28;20317;-70
2022/06/09 03:54:56;;;;;;;22.23;20.33;;;;;;;16.38;100.00;98279.19;2075292;28;20958;-70
2022/06/09 03:55:58;;;;;;;22.85;20.92;;;;;;;16.40;100.00;98283.06;2074572;28;20203;-70
2022/06/09 03:57:00;;;;;;;23.80;21.63;;;;;;;16.50;100.00;98275.56;2074840;28;20276;-71
2022/06/09 03:58:00;;;;;;;22.57;20.37;;;;;;;16.49;100.00;98274.78;2075210;28;20573;-71
2022/06/09 03:59:02;;;;;;;26.40;21.77;;;;;;;16.56;100.00;98282.22;2075317;28;20423;-70
2022/06/09 04:00:04;;;;;;;22.90;20.70;;;;;;;16.58;100.00;98283.44;2074732;28;20291;-70
2022/06/09 04:01:06;;;;;;;22.13;20.03;;;;;;;16.62;100.00;98278.91;2074699;28;20530;-70
2022/06/09 04:02:07;;;;;;;23.20;21.00;;;;;;;16.63;100.00;98282.38;2074485;28;20443;-70
2022/06/09 04:03:12;;;;;;;22.40;20.37;;;;;;;16.56;100.00;98283.00;2074602;28;20431;-70
2022/06/09 04:04:12;;;;;;;22.67;20.53;;;;;;;16.55;100.00;98281.47;2075382;28;20427;-70
2022/06/09 04:05:14;;;;;;;23.47;21.27;;;;;;;16.56;100.00;98288.41;2075176;28;20446;-72
2022/06/09 04:06:18;;;;;;;23.53;21.20;;;;;;;16.62;100.00;98287.00;2074792;28;20231;-70
2022/06/09 04:07:19;;;;;;;22.27;20.27;;;;;;;16.67;100.00;98292.06;2074500;28;20491;-70
2022/06/09 04:08:21;;;;;;;25.50;22.63;;;;;;;16.72;100.00;98288.38;2074659;28;20427;-70
2022/06/09 04:09:23;;;;;;;23.03;20.80;;;;;;;16.72;100.00;98290.28;2082546;28;20431;-70
2022/06/09 04:10:26;;;;;;;25.33;22.83;;;;;;;16.74;100.00;98296.88;2082655;28;20426;-71
2022/06/09 04:11:28;;;;;;;24.70;22.33;;;;;;;16.78;100.00;98292.34;2074546;28;20447;-70
2022/06/09 04:12:29;;;;;;;26.57;22.80;;;;;;;16.74;100.00;98288.78;2066318;28;20487;-70
2022/06/09 04:13:30;;;;;;;24.80;22.47;;;;;;;16.79;100.00;98293.13;2082536;28;20941;-70
2022/06/09 04:14:31;;;;;;;25.40;22.60;;;;;;;16.83;100.00;98294.72;2090911;28;20654;-70
2022/06/09 04:15:33;;;;;;;25.00;22.60;;;;;;;16.83;100.00;98294.72;2073905;28;20811;-70
2022/06/09 04:16:37;;;;;;;24.03;21.87;;;;;;;16.85;100.00;98292.47;2073477;28;20204;-70
2022/06/09 04:17:39;;;;;;;25.30;22.60;;;;;;;16.89;100.00;98287.94;2074650;28;20446;-70
2022/06/09 04:18:39;;;;;;;25.33;22.77;;;;;;;16.91;100.00;98293.72;2074776;28;20432;-70
2022/06/09 04:19:41;;;;;;;25.80;22.70;;;;;;;16.88;100.00;98291.75;2075057;28;20438;-70
2022/06/09 04:20:42;;;;;;;25.67;23.07;;;;;;;16.94;100.00;98290.34;2090718;28;20313;-70
2022/06/09 04:21:45;;;;;;;29.93;23.40;;;;;;;16.96;100.00;98289.97;2090647;28;20998;-70
2022/06/09 04:22:47;;;;;;;26.37;23.67;;;;;;;16.98;100.00;98292.31;2075232;28;20291;-70
2022/06/09 04:23:50;;;;;;;25.70;23.10;;;;;;;17.00;100.00;98292.72;2075047;28;20430;-70
2022/06/09 04:24:51;;;;;;;25.50;22.83;;;;;;;16.94;100.00;98290.34;2075259;28;20443;-70
2022/06/09 04:25:52;;;;;;;25.13;22.80;;;;;;;16.95;100.00;98296.50;2074544;28;20448;-70
2022/06/09 04:26:53;;;;;;;24.67;22.30;;;;;;;16.94;100.00;98295.72;2074375;28;20671;-70
2022/06/09 04:27:55;;;;;;;25.33;22.90;;;;;;;16.92;100.00;98295.28;2074346;28;20447;-70
2022/06/09 04:28:55;;;;;;;27.43;22.93;;;;;;;17.00;100.00;98292.72;2074303;28;20267;-70
2022/06/09 04:29:58;;;;;;;26.13;23.47;;;;;;;16.94;100.00;98295.72;2074924;28;20447;-70
2022/06/09 04:30:59;;;;;;;25.97;23.37;;;;;;;16.90;100.00;98291.41;2073816;28;20212;-70
2022/06/09 04:32:01;;;;;;;25.47;23.00;;;;;;;16.88;100.00;98289.06;2074173;28;20439;-70
2022/06/09 04:33:03;;;;;;;26.37;23.87;;;;;;;16.94;100.00;98295.72;2074977;28;20530;-70
2022/06/09 04:34:04;;;;;;;25.33;22.93;;;;;;;16.84;100.00;98284.72;2074878;28;20566;-69
2022/06/09 04:35:06;;;;;;;25.33;22.57;;;;;;;16.81;100.00;98297.00;2075160;28;20423;-70
2022/06/09 04:36:08;;;;;;;26.10;23.17;;;;;;;16.82;100.00;98292.41;2074084;28;20212;-70
2022/06/09 04:37:13;;;;;;;25.60;23.00;;;;;;;16.80;100.00;98281.97;2074493;28;20922;-70
2022/06/09 04:38:15;;;;;;;26.23;22.50;;;;;;;16.80;100.00;98284.69;2075075;28;20431;-70
2022/06/09 04:39:16;;;;;;;25.33;22.80;;;;;;;16.91;100.00;98290.25;2074867;28;20435;-70
2022/06/09 04:40:17;;;;;;;24.83;22.27;;;;;;;16.92;100.00;98286.44;2074945;28;20326;-70
2022/06/09 04:41:19;;;;;;;25.60;23.03;;;;;;;16.88;100.00;98289.06;2074889;28;20427;-70
2022/06/09 04:42:20;;;;;;;32.57;23.80;;;;;;;16.86;100.00;98288.66;2074888;28;20474;-70
2022/06/09 04:43:23;;;;;;;26.73;23.93;;;;;;;17.03;100.00;98294.69;2082336;28;20446;-70
2022/06/09 04:44:25;;;;;;;25.57;23.00;;;;;;;17.14;100.00;98293.78;2082087;28;20188;-70
2022/06/09 04:45:26;;;;;;;26.93;23.53;;;;;;;17.18;100.00;98283.81;2074203;28;20443;-70
2022/06/09 04:46:27;;;;;;;28.60;23.17;;;;;;;17.24;100.00;98282.41;2074402;28;20275;-70
2022/06/09 04:47:29;;;;;;;26.07;23.43;;;;;;;17.28;100.00;98287.06;2074860;28;20427;-70
2022/06/09 04:48:30;;;;;;;27.00;24.13;;;;;;;17.28;100.00;98289.75;2074800;28;20280;-70